Flight Track Log - Related Links

Times and Time Zones

All times are in EST time to prevent confusion due to time zone crossing. See the SAS1439 flight status page for this flight to view local times or setup timezone preferences in your user account.

Time Position Orientation Groundspeed Altitude Reporting Facility
EST Latitude Longitude Course Direction KTS MPH feet Rate Location/Type
Sat 12:45:00 AM 57.2739 12.3546 174° South  Level Estimated
Sat 12:46:00 AM 57.1766 12.3730 174° South  Level Estimated
Sat 12:46:44 AM 57.2223 12.3158 174° South 375 432 16,400  Level FlightAware ADS-B
Sat 12:47:32 AM 57.1408 12.3376 172° South 365 420 19,400 3,000 Climbing FlightAware ADS-B
Sat 12:48:10 AM 57.0787 12.3533 172° South 367 422 20,700 1,200 Climbing FlightAware ADS-B
Sat 12:48:52 AM 57.0087 12.3707 172° South 365 420 21,000 217 Climbing FlightAware ADS-B
Sat 12:49:33 AM 56.9380 12.3881 172° South 367 422 21,000  Level FlightAware ADS-B
Sat 12:50:12 AM 56.8825 12.4018 172° South 367 422 21,000 -456 Level FlightAware ADS-B
Sat 12:50:52 AM 56.8091 12.4199 172° South 370 426 20,400 -1,500 Descending FlightAware ADS-B
Sat 12:51:32 AM 56.7371 12.4374 172° South 367 422 19,000 -1,778 Descending FlightAware ADS-B
Sat 12:52:13 AM 56.6694 12.4541 172° South 352 405 18,000 -1,630 Descending FlightAware ADS-B
Sat 12:52:53 AM 56.6103 12.4685 172° South 342 394 16,800 -2,250 Descending FlightAware ADS-B
Sat 12:53:25 AM 56.5497 12.4828 173° South 339 390 15,300 -2,095 Descending FlightAware ADS-B
Sat 12:53:56 AM 56.5009 12.4945 172° South 327 376 14,600 -1,304 Descending FlightAware ADS-B
Sat 12:54:11 AM 56.4781 12.5014 170° South 328 377 14,300 -1,333 Descending FlightAware ADS-B
Sat 12:54:41 AM 56.4352 12.5229 165° South 319 367 13,600 -1,839 Descending FlightAware ADS-B
Sat 12:55:13 AM 56.3954 12.5426 165° South 326 375 12,400 -1,917 Descending FlightAware ADS-B
Sat 12:55:53 AM 56.3389 12.5711 164° South 313 360 11,300 -1,895 Descending FlightAware ADS-B
Sat 12:56:10 AM 56.3097 12.5857 164° South 305 351 10,600 -1,826 Descending FlightAware ADS-B
Sat 12:56:39 AM 56.2684 12.6065 164° South 303 349 9,900 -1,696 Descending FlightAware ADS-B
Sat 12:56:56 AM 56.2463 12.6175 164° South 303 349 9,300 -1,765 Descending FlightAware ADS-B
Sat 12:57:13 AM 56.2303 12.6255 165° South 301 346 8,900 -1,500 Descending FlightAware ADS-B
Sat 12:57:32 AM 56.2065 12.6374 165° South 300 345 8,400 -1,350 Descending FlightAware ADS-B
Sat 12:57:53 AM 56.1770 12.6520 165° South 300 345 8,000 -1,024 Descending FlightAware ADS-B
Sat 12:58:13 AM 56.1496 12.6655 165° South 301 346 7,700 -923 Descending FlightAware ADS-B
Sat 12:58:32 AM 56.1254 12.6776 164° South 297 342 7,400 -1,050 Descending FlightAware ADS-B
Sat 12:58:53 AM 56.0970 12.6917 165° South 293 337 7,000 -585 Descending FlightAware ADS-B
Sat 12:59:13 AM 56.0710 12.7047 164° South 277 319 7,000  Level FlightAware ADS-B
Sat 12:59:33 AM 56.0466 12.7168 165° South 277 319 7,000  Level FlightAware ADS-B
Sat 12:59:53 AM 56.0230 12.7284 165° South 277 319 7,000  Level FlightAware ADS-B
Sat 01:00:12 AM 55.9972 12.7412 165° South 277 319 7,000  Level FlightAware ADS-B
Sat 01:00:33 AM 55.9726 12.7537 164° South 276 318 7,000 -293 Level FlightAware ADS-B
Sat 01:00:53 AM 55.9485 12.7722 157° South 268 308 6,800 -615 Descending FlightAware ADS-B
Sat 01:01:12 AM 55.9292 12.7888 154° Southeast 259 298 6,600 -585 Descending FlightAware ADS-B
Sat 01:01:34 AM 55.9068 12.8156 146° Southeast 253 291 6,400 -571 Descending FlightAware ADS-B
Sat 01:01:54 AM 55.8881 12.8417 142° Southeast 243 280 6,200 -769 Descending FlightAware ADS-B
Sat 01:02:13 AM 55.8716 12.8649 142° Southeast 239 275 5,900 -1,024 Descending FlightAware ADS-B
Sat 01:02:35 AM 55.8533 12.8905 142° Southeast 239 275 5,500 -857 Descending FlightAware ADS-B
Sat 01:02:55 AM 55.8364 12.9145 142° Southeast 231 266 5,300 -450 Descending FlightAware ADS-B
Sat 01:03:15 AM 55.8198 12.9385 141° Southeast 220 253 5,200 -439 Descending FlightAware ADS-B
Sat 01:03:36 AM 55.8024 12.9525 156° South 188 216 5,000 -720 Descending FlightAware ADS-B
Sat 01:03:40 AM 55.7960 12.9493 196° South 169 194 4,900 -947 Descending FlightAware ADS-B
Sat 01:03:55 AM 55.7908 12.9381 230° Southwest 160 184 4,700 -800 Descending FlightAware ADS-B
Sat 01:04:10 AM 55.7831 12.9163 238° Southwest 160 184 4,500 -545 Descending FlightAware ADS-B
Sat 01:04:17 AM 55.7798 12.9097 228° Southwest 163 188 4,500 -240 Level FlightAware ADS-B
Sat 01:04:35 AM 55.7718 12.8959 224° Southwest 166 191 4,400 -462 Descending FlightAware ADS-B
Sat 01:04:56 AM 55.7606 12.8779 222° Southwest 157 181 4,200 -732 Descending FlightAware ADS-B
Sat 01:05:16 AM 55.7501 12.8616 221° Southwest 152 175 3,900 -900 Descending FlightAware ADS-B
Sat 01:05:36 AM 55.7399 12.8455 221° Southwest 152 175 3,600 -900 Descending FlightAware ADS-B
Sat 01:05:56 AM 55.7302 12.8306 221° Southwest 152 175 3,300 -900 Descending FlightAware ADS-B
Sat 01:06:16 AM 55.7180 12.8114 221° Southwest 155 178 3,000 -900 Descending FlightAware ADS-B
Sat 01:06:36 AM 55.7071 12.7945 221° Southwest 152 175 2,700 -750 Descending FlightAware ADS-B
Sat 01:06:56 AM 55.6969 12.7786 221° Southwest 142 163 2,500 -769 Descending FlightAware ADS-B
Sat 01:07:15 AM 55.6876 12.7640 221° Southwest 135 155 2,200 -769 Descending FlightAware ADS-B
Sat 01:07:35 AM 55.6788 12.7505 221° Southwest 124 143 2,000 -585 Descending FlightAware ADS-B
Sat 01:07:56 AM 55.6699 12.7366 221° Southwest 120 138 1,800 -750 Descending FlightAware ADS-B
Sat 01:08:15 AM 55.6621 12.7244 221° Southwest 121 139 1,500 -750 Descending FlightAware ADS-B
Sat 01:08:36 AM 55.6545 12.7126 221° Southwest 120 138 1,300 -585 Descending FlightAware ADS-B
Sat 01:08:56 AM 55.6448 12.6976 221° Southwest 121 139 1,100 -750 Descending FlightAware ADS-B
Sat 01:09:16 AM 55.6362 12.6841 221° Southwest 122 140 800 -750 Descending FlightAware ADS-B
Sat 01:09:36 AM 55.6280 12.6715 221° Southwest 122 140 600 -600 Descending FlightAware ADS-B
Sat 01:12:00 AM 55.6179 12.6560 221° Southwest  Level Estimated
Sat 01:13:00 AM 55.6179 12.6560 159° South  Level Estimated
Sat 01:14:00 AM 55.6179 12.6560 159° South  Level Estimated
Sat 01:15:00 AM 55.6179 12.6560 159° South  Level Estimated
Sat 01:16:00 AM 55.6179 12.6560 159° South  Level Estimated
Sat 01:17:00 AM 55.6179 12.6560 159° South  Level Estimated
Sat 01:18:00 AM 55.6179 12.6560 159° South  Level Estimated

Login

Don't have an account? Register now (free) for customized features, flight alerts, and more!